Weather at Vienna International Airport

Public forecast

Using degrees Celsius for public forecast. Weather courtesy of forecast.io.

Current aviation weather report (METAR) for Vienna International Airport

Retrieved 2021/04/20 22:50 UTC (18 minutes ago):

LOWW 202250Z 30009KT CAVOK 09/04 Q1015 NOSIG

Aviation forecast (TAF) for Vienna International Airport

Retrieved 2021/04/20 21:25 UTC (2 hours ago):

TAF LOWW 202015Z 2021/2203 25005KT CAVOK TX17/2114Z TN07/2202Z TEMPO 2112/2117 FEW050CB